Terminal Aerodrome Forecast
Issued by NWS

Home | Current Version | Previous Version | Graphics & Text | Print | Product List | Glossary On
Versions: 1 2 3 4 5 6 7 8 9 10 11 12 13 14 15
484
FTUS43 KGRB 241131
TAFCWA
TAF
KCWA 241131Z 2412/2512 14005KT P6SM SCT045 BKN120
      TEMPO 2412/2414 BKN045
     FM241400 19007KT P6SM SCT050 BKN120
     FM241700 20010G16KT P6SM SCT050 SCT120
     FM242000 20010G16KT P6SM VCSH SCT060 BKN100
     FM250000 20008KT P6SM SCT100 BKN200
     FM250400 19006KT P6SM SCT040 OVC080 WS010/22035KT PROB30
      2504/2508 5SM -SHRA BR BKN040
     FM250800 19006KT P6SM SCT035 OVC070 WS010/24035KT PROB30
      2508/2512 4SM -TSRA BR BKN035CB=

USA.gov is the U.S. government's official web portal to all federal, state and local government web resources and services.